Airfield :
LOGIN :

Register | Disclaimer

   EN    FR    IT 

 










Legend :    VFR   Marginal VFR   IFR   Intensive IFR   Very Intensive IFR
Visi :
Ceiling :
>= 8 km
>= 3000ft
5 to 8 km
1000 to 3000 ft
1500m to 5 km
500 to 1000 ft
800 to 1500m
200 to 500 ft
< 800m
< 200 ft
Symbols :   Thunderstorms  Fog  Heavy snow  Heavy precipitations  Wind > 20 kt
SIGMETs :     Misc.  Thunderstorms  Icing  Turbulence  Mountain Waves  Volcanic Ashes






- Airport Elevation : 915 ft
- IATA code : LUG


LSZA - Lugano

CURRENT METAR :
  • 080950Z VRB01KT 9999 FEW060 04/01 Q1011

EXPIRED METARs :
  • 080920Z VRB01KT 9999 FEW060 02/00 Q1011
  • 080850Z 36003KT 9999 BKN060 00/M01 Q1012
  • 080820Z VRB02KT 9999 BKN060 M00/M01 Q1012
  • 080750Z 36004KT 9999 BKN060 M01/M02 Q1012
  • 080720Z 01003KT 9999 BKN060 M02/M02 Q1012
  • 080650Z VRB02KT 9999 SCT060 M02/M02 Q1012

TAF TAF LSZA
Valid from the 08 at 09:00 until the 08 at 18:00 UTC


080825Z 0809/0818 VRB02KT 9999 BKN060
ATIS : +41 22 417 40 88



MET'MAP, your aeronautical weather chart ! - Copyright ORBIFLY December 2007 - Disclaimer

ORBIFLY MET'MAP TEAM :

Programming & Development : Alexandra Zaïnal
Original concept : Baudouin d'Aumeries
Technical & hardware support : Manuel Goepfert
Assistance : Marc-Olivier Méhu




SOURCES & CREDITS :

   NOAA